createdAt,value
2019-05-26T00:00:55.487Z,71.41
2019-05-26T00:03:23.966Z,71.37
2019-05-26T00:05:52.416Z,71.39
2019-05-26T00:08:21.137Z,71.17
2019-05-26T00:10:49.784Z,71.09
2019-05-26T00:13:18.573Z,71.17
2019-05-26T00:15:47.157Z,71.16
2019-05-26T00:18:15.607Z,71.23
2019-05-26T00:20:44.720Z,71.38
2019-05-26T00:23:13.199Z,71.18
2019-05-26T00:25:41.766Z,71.33
2019-05-26T00:28:10.271Z,71.36
2019-05-26T00:30:39.110Z,71.54
2019-05-26T00:33:07.637Z,71.68
2019-05-26T00:35:36.203Z,71.75
2019-05-26T00:38:04.746Z,72.17
2019-05-26T00:40:33.424Z,71.97
2019-05-26T00:43:02.080Z,71.94
2019-05-26T00:45:30.731Z,72.15
2019-05-26T00:47:59.246Z,72.38
2019-05-26T00:50:27.884Z,72.50
2019-05-26T00:52:57.041Z,72.43
2019-05-26T00:55:25.950Z,72.40
2019-05-26T00:57:54.540Z,72.35
2019-05-26T01:00:40.477Z,72.37
2019-05-26T01:03:10.587Z,72.58
2019-05-26T01:05:39.164Z,72.62
2019-05-26T01:08:08.348Z,72.84
2019-05-26T01:10:37.463Z,72.62
2019-05-26T01:13:06.865Z,72.44
2019-05-26T01:15:35.305Z,72.01
2019-05-26T01:18:04.958Z,71.86
2019-05-26T01:20:33.634Z,71.94
2019-05-26T01:23:02.291Z,72.16
2019-05-26T01:25:31.009Z,71.85
2019-05-26T01:27:59.896Z,71.47
2019-05-26T01:30:36.730Z,71.58
2019-05-26T01:33:06.683Z,71.33
2019-05-26T01:35:38.561Z,71.15
2019-05-26T01:38:22.399Z,71.04
2019-05-26T01:40:43.725Z,70.85
2019-05-26T01:43:12.384Z,70.72
2019-05-26T01:45:41.119Z,70.63
2019-05-26T01:48:10.033Z,70.72
2019-05-26T01:50:38.865Z,70.65
2019-05-26T01:53:07.908Z,70.52
2019-05-26T01:55:36.525Z,70.66
2019-05-26T01:58:05.594Z,70.64
2019-05-26T02:00:34.064Z,70.69
2019-05-26T02:03:02.841Z,70.65
2019-05-26T02:05:31.293Z,70.54
2019-05-26T02:07:59.926Z,70.65
2019-05-26T02:10:28.547Z,70.68
2019-05-26T02:12:57.196Z,71.07
2019-05-26T02:15:26.452Z,71.31
2019-05-26T02:17:54.973Z,71.93
2019-05-26T02:20:24.468Z,71.76
2019-05-26T02:22:52.959Z,72.22
2019-05-26T02:25:22.141Z,71.44
2019-05-26T02:27:50.919Z,71.60
2019-05-26T02:30:20.147Z,71.98
2019-05-26T02:32:48.842Z,71.46
2019-05-26T02:35:18.415Z,71.28
2019-05-26T02:37:47.179Z,70.90
2019-05-26T02:40:17.045Z,70.28
2019-05-26T02:42:45.685Z,70.03
2019-05-26T02:45:17.826Z,69.60
2019-05-26T02:47:46.439Z,69.55
2019-05-26T02:50:16.112Z,69.43
2019-05-26T02:52:44.818Z,69.00
2019-05-26T02:55:14.420Z,69.13
2019-05-26T02:57:43.046Z,69.57
2019-05-26T03:00:13.999Z,69.26
2019-05-26T03:02:43.093Z,69.06
2019-05-26T03:05:13.888Z,68.97
2019-05-26T03:07:44.088Z,68.78
2019-05-26T03:10:14.519Z,68.78
2019-05-26T03:12:43.840Z,68.63
2019-05-26T03:15:14.274Z,68.85
2019-05-26T03:17:43.499Z,68.65
2019-05-26T03:20:14.186Z,68.59
2019-05-26T03:22:43.562Z,68.54
2019-05-26T03:25:13.335Z,68.32
2019-05-26T03:27:41.992Z,68.54
2019-05-26T03:30:10.790Z,68.47
2019-05-26T03:32:39.648Z,68.28
2019-05-26T03:35:10.424Z,68.21
2019-05-26T03:37:39.017Z,68.33
2019-05-26T03:40:09.546Z,68.29
2019-05-26T03:42:38.196Z,68.32
2019-05-26T03:45:09.670Z,68.58
2019-05-26T03:47:38.270Z,68.75
2019-05-26T03:50:08.850Z,68.45
2019-05-26T03:52:37.475Z,68.44
2019-05-26T03:55:07.868Z,68.19
2019-05-26T03:57:36.389Z,68.13
2019-05-26T04:00:08.526Z,67.83
2019-05-26T04:02:36.367Z,67.54
2019-05-26T04:05:07.165Z,67.39
2019-05-26T04:07:35.824Z,66.97
2019-05-26T04:10:07.069Z,67.05
2019-05-26T04:12:35.552Z,66.93
2019-05-26T04:15:05.964Z,66.81
2019-05-26T04:17:34.575Z,66.92
2019-05-26T04:20:05.026Z,66.72
2019-05-26T04:22:33.679Z,66.74
2019-05-26T04:25:02.320Z,66.51
2019-05-26T04:27:30.772Z,66.62
2019-05-26T04:29:59.435Z,66.63
2019-05-26T04:32:27.990Z,66.35
2019-05-26T04:34:56.505Z,66.56
2019-05-26T04:37:25.229Z,66.39
2019-05-26T04:39:53.882Z,66.36
2019-05-26T04:42:22.670Z,66.42
2019-05-26T04:44:51.255Z,66.24
2019-05-26T04:47:19.985Z,66.11
2019-05-26T04:49:48.620Z,66.53
2019-05-26T04:52:17.343Z,66.19
2019-05-26T04:54:45.991Z,66.03
2019-05-26T04:57:14.718Z,66.21
2019-05-26T04:59:43.366Z,66.26
2019-05-26T05:02:12.108Z,66.34
2019-05-26T05:04:40.597Z,65.79
2019-05-26T05:07:09.049Z,65.50
2019-05-26T05:09:37.540Z,65.23
2019-05-26T05:12:06.310Z,65.23
2019-05-26T05:14:34.927Z,65.11
2019-05-26T05:17:03.537Z,65.04
2019-05-26T05:19:32.033Z,64.65
2019-05-26T05:22:00.602Z,64.46
2019-05-26T05:24:29.094Z,64.37
2019-05-26T05:26:57.544Z,63.70
2019-05-26T05:29:26.134Z,63.98
2019-05-26T05:31:54.742Z,63.91
2019-05-26T05:34:23.687Z,63.72
2019-05-26T05:36:52.135Z,63.86
2019-05-26T05:39:20.836Z,64.00
2019-05-26T05:41:49.491Z,63.49
2019-05-26T05:44:18.172Z,63.27
2019-05-26T05:46:46.827Z,63.08
2019-05-26T05:49:15.294Z,62.93
2019-05-26T05:51:43.975Z,63.05
2019-05-26T05:54:12.604Z,62.73
2019-05-26T05:56:41.091Z,62.81
2019-05-26T05:59:09.544Z,62.85
2019-05-26T06:01:38.226Z,63.78
2019-05-26T06:04:06.739Z,62.98
2019-05-26T06:06:35.460Z,63.07
2019-05-26T06:09:05.392Z,63.05
2019-05-26T06:11:33.886Z,63.17
2019-05-26T06:14:02.465Z,63.19
2019-05-26T06:16:31.112Z,63.26
2019-05-26T06:18:59.826Z,63.16
2019-05-26T06:21:28.453Z,63.23
2019-05-26T06:23:56.930Z,63.34
2019-05-26T06:26:25.524Z,63.56
2019-05-26T06:28:54.320Z,62.56
2019-05-26T06:31:22.886Z,62.93
2019-05-26T06:33:51.372Z,62.52
2019-05-26T06:36:20.019Z,62.26
2019-05-26T06:38:48.748Z,62.05
2019-05-26T06:41:32.450Z,61.90
2019-05-26T06:43:47.666Z,61.39
2019-05-26T06:46:16.244Z,61.59
2019-05-26T06:48:44.684Z,62.19
2019-05-26T06:51:13.354Z,62.29
2019-05-26T06:53:42.004Z,61.84
2019-05-26T06:56:10.709Z,61.88
2019-05-26T06:58:39.368Z,61.39
2019-05-26T07:01:07.855Z,61.36
2019-05-26T07:03:36.423Z,61.72
2019-05-26T07:06:05.289Z,61.42
2019-05-26T07:08:33.736Z,60.66
2019-05-26T07:11:02.252Z,61.14
2019-05-26T07:13:30.874Z,61.08
2019-05-26T07:15:59.585Z,60.67
2019-05-26T07:18:28.341Z,60.71
2019-05-26T07:20:57.293Z,60.52
2019-05-26T07:23:25.938Z,60.42
2019-05-26T07:25:54.597Z,59.36
2019-05-26T07:28:23.326Z,58.27
2019-05-26T07:30:51.985Z,58.76
2019-05-26T07:33:20.707Z,59.47
2019-05-26T07:35:50.020Z,59.52
2019-05-26T07:38:19.004Z,59.08
2019-05-26T07:40:47.635Z,59.09
2019-05-26T07:43:16.393Z,60.18
2019-05-26T07:45:45.009Z,59.65
2019-05-26T07:48:13.694Z,60.44
2019-05-26T07:50:42.194Z,59.63
2019-05-26T07:53:10.774Z,59.97
2019-05-26T07:55:39.472Z,59.72
2019-05-26T07:58:08.183Z,59.06
2019-05-26T08:00:36.937Z,59.16
2019-05-26T08:03:05.502Z,58.83
2019-05-26T08:05:34.235Z,59.20
2019-05-26T08:08:12.054Z,59.15
2019-05-26T08:10:33.245Z,59.00
2019-05-26T08:13:01.776Z,58.88
2019-05-26T08:15:30.526Z,58.26
2019-05-26T08:17:59.183Z,58.50
2019-05-26T08:20:27.942Z,58.21
2019-05-26T08:22:56.533Z,58.01
2019-05-26T08:25:25.254Z,59.49
2019-05-26T08:27:53.901Z,58.30
2019-05-26T08:30:22.713Z,58.43
2019-05-26T08:32:51.269Z,59.54
2019-05-26T08:35:19.954Z,58.91
2019-05-26T08:37:48.672Z,57.45
2019-05-26T08:40:19.951Z,57.48
2019-05-26T08:42:50.375Z,58.18
2019-05-26T08:45:22.048Z,58.25
2019-05-26T08:47:51.446Z,58.01
2019-05-26T08:50:21.595Z,58.39
2019-05-26T08:52:50.408Z,58.19
2019-05-26T08:55:19.491Z,58.33
2019-05-26T08:57:48.057Z,57.15
2019-05-26T09:00:17.581Z,56.03
2019-05-26T09:02:46.361Z,57.44
2019-05-26T09:05:15.580Z,55.33
2019-05-26T09:07:44.236Z,55.76
2019-05-26T09:10:13.364Z,54.88
2019-05-26T09:12:41.922Z,55.10
2019-05-26T09:15:10.719Z,54.61
2019-05-26T09:17:39.451Z,53.52
2019-05-26T09:20:11.350Z,53.87
2019-05-26T09:22:40.714Z,53.55
2019-05-26T09:25:09.545Z,53.25
2019-05-26T09:27:38.024Z,52.91
2019-05-26T09:30:07.697Z,51.77
2019-05-26T09:32:36.686Z,51.40
2019-05-26T09:35:07.514Z,50.50
2019-05-26T09:37:36.317Z,52.07
2019-05-26T09:40:09.460Z,52.07
2019-05-26T09:42:38.169Z,51.45
2019-05-26T09:45:08.349Z,51.37
2019-05-26T09:47:37.080Z,51.50
2019-05-26T09:50:06.845Z,51.50
2019-05-26T09:52:35.522Z,50.98
2019-05-26T09:55:08.057Z,50.16
2019-05-26T09:57:36.907Z,50.16
2019-05-26T10:00:07.429Z,50.80
2019-05-26T10:02:36.093Z,50.22
2019-05-26T10:05:06.430Z,51.00
2019-05-26T10:07:34.998Z,48.75
2019-05-26T10:10:05.529Z,49.66
2019-05-26T10:15:10.486Z,48.44
2019-05-26T10:17:39.173Z,49.80
2019-05-26T10:20:09.445Z,50.83
2019-05-26T10:22:37.993Z,50.08
2019-05-26T10:25:07.532Z,49.18
2019-05-26T10:27:36.314Z,49.89
2019-05-26T10:30:07.825Z,50.52
2019-05-26T10:32:36.266Z,47.83
2019-05-26T10:35:08.017Z,48.03
2019-05-26T10:37:36.560Z,48.14
2019-05-26T10:40:07.145Z,48.75
2019-05-26T10:42:35.853Z,47.44
2019-05-26T10:45:07.492Z,47.92
2019-05-26T10:47:36.006Z,48.83
2019-05-26T10:50:09.541Z,48.19
2019-05-26T10:52:38.304Z,48.30
2019-05-26T10:55:07.884Z,46.75
2019-05-26T10:57:36.674Z,46.98
2019-05-26T11:00:07.544Z,47.36
2019-05-26T11:02:36.126Z,45.70
2019-05-26T11:05:07.210Z,45.40
2019-05-26T11:07:36.010Z,45.59
2019-05-26T11:10:06.407Z,46.69
2019-05-26T11:12:35.163Z,45.68
2019-05-26T11:15:05.748Z,44.47
2019-05-26T11:17:34.339Z,45.78
2019-05-26T11:20:03.251Z,44.47
2019-05-26T11:22:31.735Z,45.24
2019-05-26T11:25:00.327Z,46.14
2019-05-26T11:27:29.060Z,46.29
2019-05-26T11:29:57.505Z,44.54
2019-05-26T11:32:26.128Z,47.07
2019-05-26T11:35:01.503Z,45.63
2019-05-26T11:37:25.120Z,45.07
2019-05-26T11:39:53.569Z,45.77
2019-05-26T11:42:22.083Z,43.52
2019-05-26T11:44:50.533Z,45.86
2019-05-26T11:47:19.156Z,44.07
2019-05-26T11:49:47.603Z,43.94
2019-05-26T11:52:19.966Z,43.83
2019-05-26T11:54:46.446Z,43.38
2019-05-26T11:57:15.098Z,44.23
2019-05-26T11:59:47.173Z,44.78
2019-05-26T12:02:13.750Z,44.98
2019-05-26T12:04:42.248Z,45.57
2019-05-26T12:07:10.743Z,44.79
2019-05-26T12:09:39.238Z,46.57
2019-05-26T12:12:07.817Z,47.00
2019-05-26T12:14:36.321Z,45.94
2019-05-26T12:17:05.014Z,46.45
2019-05-26T12:19:33.502Z,46.35
2019-05-26T12:22:01.949Z,48.14
2019-05-26T12:24:30.715Z,46.14
2019-05-26T12:26:59.318Z,45.71
2019-05-26T12:29:27.816Z,46.58
2019-05-26T12:31:56.532Z,46.59
2019-05-26T12:34:24.994Z,46.59
2019-05-26T12:36:53.491Z,46.27
2019-05-26T12:39:21.938Z,46.42
2019-05-26T12:41:50.531Z,45.10
2019-05-26T12:44:18.966Z,45.08
2019-05-26T12:46:47.627Z,45.88
2019-05-26T12:49:16.085Z,46.98
2019-05-26T12:51:44.685Z,48.54
2019-05-26T12:54:13.141Z,47.13
2019-05-26T12:56:41.735Z,47.88
2019-05-26T12:59:10.181Z,47.27
2019-05-26T13:01:38.799Z,48.17
2019-05-26T13:04:07.459Z,47.75
2019-05-26T13:06:36.222Z,47.29
2019-05-26T13:09:08.267Z,47.72
2019-05-26T13:11:36.891Z,47.19
2019-05-26T13:14:05.827Z,48.37
2019-05-26T13:16:35.949Z,48.12
2019-05-26T13:19:12.132Z,47.12
2019-05-26T13:25:20.385Z,47.53
2019-05-26T13:27:50.485Z,48.09
2019-05-26T13:30:26.891Z,47.96
2019-05-26T13:32:55.398Z,48.61
2019-05-26T13:35:23.833Z,49.42
2019-05-26T13:37:52.715Z,47.68
2019-05-26T13:40:21.418Z,49.31
2019-05-26T13:42:49.861Z,48.50
2019-05-26T13:45:22.949Z,48.59
2019-05-26T13:47:49.148Z,48.75
2019-05-26T13:50:18.478Z,47.99
2019-05-26T13:52:46.923Z,48.59
2019-05-26T13:55:16.461Z,47.80
2019-05-26T13:57:44.911Z,48.32
2019-05-26T14:00:15.650Z,48.45
2019-05-26T14:02:44.241Z,48.85
2019-05-26T14:05:14.636Z,48.45
2019-05-26T14:07:43.082Z,48.81
2019-05-26T14:10:12.219Z,47.89
2019-05-26T14:12:40.843Z,48.38
2019-05-26T14:15:10.519Z,49.66
2019-05-26T14:17:39.382Z,48.28
2019-05-26T14:20:10.007Z,48.56
2019-05-26T14:22:38.507Z,48.82
2019-05-26T14:25:08.031Z,48.78
2019-05-26T14:27:36.570Z,48.60
2019-05-26T14:30:10.450Z,48.27
2019-05-26T14:32:38.948Z,49.29
2019-05-26T14:35:07.624Z,48.72
2019-05-26T14:37:36.173Z,48.03
2019-05-26T14:40:08.743Z,49.17
2019-05-26T14:42:37.221Z,47.69
2019-05-26T14:45:09.410Z,47.27
2019-05-26T14:47:37.992Z,48.24
2019-05-26T14:50:10.580Z,48.05
2019-05-26T14:52:39.403Z,48.53
2019-05-26T14:55:08.785Z,47.69
2019-05-26T14:57:37.296Z,48.41
2019-05-26T15:00:08.191Z,47.57
2019-05-26T15:02:36.717Z,47.72
2019-05-26T15:05:10.168Z,47.86
2019-05-26T15:07:38.868Z,47.50
2019-05-26T15:10:08.996Z,47.48
2019-05-26T15:12:37.689Z,48.06
2019-05-26T15:15:07.581Z,47.83
2019-05-26T15:17:36.095Z,47.51
2019-05-26T15:20:06.841Z,47.83
2019-05-26T15:22:36.114Z,47.00
2019-05-26T15:25:07.240Z,48.46
2019-05-26T15:27:36.506Z,47.62
2019-05-26T15:30:08.258Z,47.88
2019-05-26T15:32:37.072Z,48.06
2019-05-26T15:35:08.628Z,47.84
2019-05-26T15:37:37.146Z,48.27
2019-05-26T15:40:07.600Z,49.26
2019-05-26T15:42:36.498Z,48.48
2019-05-26T15:45:09.660Z,48.52
2019-05-26T15:47:38.846Z,49.90
2019-05-26T15:50:11.449Z,49.87
2019-05-26T15:52:39.696Z,50.61
2019-05-26T15:55:08.581Z,50.04
2019-05-26T15:57:37.095Z,51.87
2019-05-26T16:00:07.930Z,51.30
2019-05-26T16:02:36.554Z,51.55
2019-05-26T16:05:07.450Z,51.27
2019-05-26T16:07:36.176Z,51.66
2019-05-26T16:10:07.895Z,50.14
2019-05-26T16:12:36.609Z,50.55
2019-05-26T16:15:07.712Z,50.83
2019-05-26T16:17:38.693Z,50.54
2019-05-26T16:20:08.472Z,50.94
2019-05-26T16:22:37.170Z,50.42
2019-05-26T16:25:06.704Z,50.93
2019-05-26T16:27:35.428Z,51.05
2019-05-26T16:30:06.229Z,50.94
2019-05-26T16:32:34.942Z,51.10
2019-05-26T16:35:03.948Z,50.87
2019-05-26T16:37:32.615Z,51.50
2019-05-26T16:40:01.073Z,51.22
2019-05-26T16:42:29.775Z,50.86
2019-05-26T16:44:58.218Z,50.84
2019-05-26T16:47:26.694Z,50.74
2019-05-26T16:49:55.384Z,51.37
2019-05-26T16:52:23.893Z,51.33
2019-05-26T16:54:52.439Z,51.85
2019-05-26T16:57:20.898Z,52.00
2019-05-26T16:59:49.568Z,51.13
2019-05-26T17:02:18.068Z,51.42
2019-05-26T17:04:46.618Z,51.48
2019-05-26T17:07:15.250Z,51.98
2019-05-26T17:09:43.761Z,51.68
2019-05-26T17:12:12.388Z,51.62
2019-05-26T17:14:40.921Z,50.87
2019-05-26T17:17:14.632Z,51.52
2019-05-26T17:19:39.638Z,51.65
2019-05-26T17:22:08.154Z,51.58
2019-05-26T17:24:36.780Z,51.61
2019-05-26T17:27:05.497Z,51.63
2019-05-26T17:29:34.089Z,51.56
2019-05-26T17:32:02.543Z,51.42
2019-05-26T17:34:31.159Z,51.56
2019-05-26T17:36:59.603Z,51.72
2019-05-26T17:39:28.246Z,51.46
2019-05-26T17:41:56.691Z,51.88
2019-05-26T17:44:25.289Z,51.78
2019-05-26T17:46:53.726Z,51.65
2019-05-26T17:49:22.372Z,52.15
2019-05-26T17:51:50.880Z,51.69
2019-05-26T17:54:19.368Z,51.97
2019-05-26T17:56:47.900Z,51.79
2019-05-26T17:59:16.441Z,52.01
2019-05-26T18:01:44.928Z,51.50
2019-05-26T18:04:13.500Z,52.13
2019-05-26T18:06:41.978Z,51.92
2019-05-26T18:09:10.632Z,51.84
2019-05-26T18:11:39.120Z,52.24
2019-05-26T18:14:07.636Z,52.29
2019-05-26T18:16:36.135Z,52.35
2019-05-26T18:19:04.658Z,52.33
2019-05-26T18:21:33.274Z,52.00
2019-05-26T18:24:01.758Z,52.03
2019-05-26T18:26:30.255Z,52.07
2019-05-26T18:28:58.816Z,52.09
2019-05-26T18:31:29.195Z,52.18
2019-05-26T18:33:57.566Z,52.72
2019-05-26T18:36:26.151Z,52.35
2019-05-26T18:38:54.804Z,52.99
2019-05-26T18:41:23.383Z,52.88
2019-05-26T18:43:51.873Z,53.02
2019-05-26T18:46:20.413Z,52.86
2019-05-26T18:48:48.996Z,52.79
2019-05-26T18:51:17.521Z,53.30
2019-05-26T18:53:46.142Z,53.02
2019-05-26T18:56:14.680Z,53.61
2019-05-26T18:58:43.412Z,53.50
2019-05-26T19:01:11.878Z,53.26
2019-05-26T19:03:40.497Z,53.51
2019-05-26T19:06:09.272Z,53.31
2019-05-26T19:08:37.848Z,53.38
2019-05-26T19:11:06.377Z,53.51
2019-05-26T19:13:34.934Z,53.15
2019-05-26T19:16:03.585Z,53.25
2019-05-26T19:18:32.459Z,53.12
2019-05-26T19:21:00.930Z,53.39
2019-05-26T19:23:29.663Z,53.47
2019-05-26T19:25:58.238Z,53.20
2019-05-26T19:28:26.725Z,53.44
2019-05-26T19:30:55.306Z,53.44
2019-05-26T19:33:23.784Z,53.37
2019-05-26T19:35:52.503Z,53.41
2019-05-26T19:38:21.144Z,53.32
2019-05-26T19:40:49.667Z,53.41
2019-05-26T19:43:18.197Z,53.64
2019-05-26T19:45:46.700Z,53.93
2019-05-26T19:48:15.233Z,53.86
2019-05-26T19:50:44.209Z,53.90
2019-05-26T19:53:12.658Z,54.15
2019-05-26T19:55:41.157Z,54.61
2019-05-26T19:58:09.680Z,54.23
2019-05-26T20:00:38.279Z,54.38
2019-05-26T20:03:06.810Z,54.51
2019-05-26T20:05:35.486Z,54.25
2019-05-26T20:08:04.267Z,54.40
2019-05-26T20:10:32.800Z,54.44
2019-05-26T20:13:01.313Z,54.73
2019-05-26T20:15:29.920Z,54.25
2019-05-26T20:17:58.435Z,54.26
2019-05-26T20:20:26.935Z,54.20
2019-05-26T20:22:55.378Z,54.83
2019-05-26T20:25:23.815Z,54.58
2019-05-26T20:27:52.476Z,54.70
2019-05-26T20:30:22.300Z,54.93
2019-05-26T20:32:51.282Z,55.19
2019-05-26T20:35:20.216Z,55.15
2019-05-26T20:37:48.723Z,55.16
2019-05-26T20:40:17.988Z,54.99
2019-05-26T20:42:46.632Z,55.01
2019-05-26T20:45:17.039Z,54.89
2019-05-26T20:47:45.544Z,55.26
2019-05-26T20:50:28.049Z,54.85
2019-05-26T20:52:45.081Z,54.97
2019-05-26T20:55:14.903Z,55.29
2019-05-26T20:57:43.352Z,55.47
2019-05-26T21:00:13.876Z,55.53
2019-05-26T21:02:43.165Z,55.60
2019-05-26T21:05:12.136Z,55.09
2019-05-26T21:07:40.569Z,55.15
2019-05-26T21:10:10.056Z,55.20
2019-05-26T21:12:38.587Z,55.53
2019-05-26T21:15:08.169Z,55.40
2019-05-26T21:17:36.907Z,55.48
2019-05-26T21:20:09.996Z,55.45
2019-05-26T21:22:38.488Z,55.38
2019-05-26T21:25:07.861Z,55.64
2019-05-26T21:27:36.607Z,55.61
2019-05-26T21:30:09.378Z,55.73
2019-05-26T21:32:37.922Z,55.89
2019-05-26T21:35:07.783Z,55.96
2019-05-26T21:37:36.523Z,55.72
2019-05-26T21:40:09.465Z,55.79
2019-05-26T21:42:38.126Z,55.79
2019-05-26T21:45:07.553Z,55.61
2019-05-26T21:47:36.128Z,55.80
2019-05-26T21:50:07.061Z,55.89
2019-05-26T21:52:35.700Z,55.69
2019-05-26T21:55:05.917Z,56.13
2019-05-26T21:57:34.357Z,55.73
2019-05-26T22:00:03.045Z,55.83
2019-05-26T22:02:31.615Z,56.09
2019-05-26T22:05:00.121Z,56.22
2019-05-26T22:07:28.553Z,55.92
2019-05-26T22:09:57.029Z,55.83
2019-05-26T22:12:25.475Z,55.83
2019-05-26T22:14:53.968Z,55.86
2019-05-26T22:17:22.497Z,56.05
2019-05-26T22:19:50.953Z,56.31
2019-05-26T22:22:19.462Z,56.24
2019-05-26T22:24:47.977Z,56.16
2019-05-26T22:27:16.661Z,56.27
2019-05-26T22:29:45.116Z,56.37
2019-05-26T22:32:13.727Z,56.22
2019-05-26T22:34:42.171Z,56.46
2019-05-26T22:37:10.794Z,56.46
2019-05-26T22:39:39.445Z,56.58
2019-05-26T22:42:08.172Z,56.65
2019-05-26T22:44:36.697Z,57.01
2019-05-26T22:47:05.388Z,56.95
2019-05-26T22:49:33.839Z,57.02
2019-05-26T22:52:02.285Z,57.00
2019-05-26T22:54:30.764Z,57.13
2019-05-26T22:56:59.328Z,56.82
2019-05-26T22:59:27.815Z,57.12
2019-05-26T23:01:56.454Z,57.15
2019-05-26T23:04:24.947Z,57.25
2019-05-26T23:06:53.452Z,57.60
2019-05-26T23:09:21.936Z,57.55
2019-05-26T23:11:50.527Z,57.77
2019-05-26T23:14:19.004Z,57.86
2019-05-26T23:16:47.585Z,58.16
2019-05-26T23:19:19.779Z,58.16
2019-05-26T23:21:46.489Z,58.07
2019-05-26T23:24:14.953Z,58.35
2019-05-26T23:26:43.526Z,58.31
2019-05-26T23:29:11.962Z,58.46
2019-05-26T23:31:40.439Z,58.60
2019-05-26T23:34:08.999Z,58.40
2019-05-26T23:36:37.713Z,58.40
2019-05-26T23:39:07.646Z,58.74
2019-05-26T23:41:36.694Z,58.87
2019-05-26T23:44:05.147Z,58.96
2019-05-26T23:46:33.700Z,59.24
2019-05-26T23:49:02.141Z,59.48
2019-05-26T23:51:30.717Z,59.49
2019-05-26T23:53:59.667Z,59.55
2019-05-26T23:56:28.106Z,59.70
2019-05-26T23:58:56.819Z,60.12
